Terminal Aerodrome Forecast
Issued by NWS

Current Version | Previous Version | Text Only | Print | Product List | Glossary On
Versions: 1 2 3 4 5 6 7 8 9 10 11 12 13
000
FTUS42 TJSJ 241145
TAFJBQ
TAF
TJBQ 241145Z 2412/2512 09014KT P6SM SCT030
     FM241400 08017G25KT P6SM SCT030
     FM250100 11008KT P6SM SCT030
      AMD NOT SKED 2502/2511=

USA.gov is the U.S. government's official web portal to all federal, state and local government web resources and services.